sensor_id;sensor_type;location;lat;lon;timestamp;pressure;altitude;pressure_sealevel;temperature;humidity
36378;BME280;22402;42.746;23.606;2023-03-16T00:02:11;92521.94;;;3.95;100.00
36378;BME280;22402;42.746;23.606;2023-03-16T00:04:37;92521.38;;;3.92;99.32
36378;BME280;22402;42.746;23.606;2023-03-16T00:07:05;92521.63;;;3.88;99.33
36378;BME280;22402;42.746;23.606;2023-03-16T00:09:31;92525.28;;;3.86;99.62
36378;BME280;22402;42.746;23.606;2023-03-16T00:12:00;92528.00;;;3.84;100.00
36378;BME280;22402;42.746;23.606;2023-03-16T00:14:25;92530.84;;;3.81;100.00
36378;BME280;22402;42.746;23.606;2023-03-16T00:16:50;92535.28;;;3.79;100.00
36378;BME280;22402;42.746;23.606;2023-03-16T00:19:15;92530.38;;;3.76;100.00
36378;BME280;22402;42.746;23.606;2023-03-16T00:21:41;92533.91;;;3.75;100.00
36378;BME280;22402;42.746;23.606;2023-03-16T00:24:06;92542.81;;;3.71;100.00
36378;BME280;22402;42.746;23.606;2023-03-16T00:26:31;92546.59;;;3.67;100.00
36378;BME280;22402;42.746;23.606;2023-03-16T00:28:56;92552.00;;;3.64;100.00
36378;BME280;22402;42.746;23.606;2023-03-16T00:31:22;92545.59;;;3.58;100.00
36378;BME280;22402;42.746;23.606;2023-03-16T00:33:47;92551.09;;;3.54;100.00
36378;BME280;22402;42.746;23.606;2023-03-16T00:36:12;92550.69;;;3.49;100.00
36378;BME280;22402;42.746;23.606;2023-03-16T00:38:38;92551.28;;;3.41;100.00
36378;BME280;22402;42.746;23.606;2023-03-16T00:41:05;92554.38;;;3.35;100.00
36378;BME280;22402;42.746;23.606;2023-03-16T00:43:31;92554.75;;;3.30;100.00
36378;BME280;22402;42.746;23.606;2023-03-16T00:45:57;92557.69;;;3.26;100.00
36378;BME280;22402;42.746;23.606;2023-03-16T00:48:22;92563.19;;;3.21;100.00
36378;BME280;22402;42.746;23.606;2023-03-16T00:50:48;92554.06;;;3.17;100.00
36378;BME280;22402;42.746;23.606;2023-03-16T00:53:13;92553.38;;;3.15;100.00
36378;BME280;22402;42.746;23.606;2023-03-16T00:55:38;92550.38;;;3.10;100.00
36378;BME280;22402;42.746;23.606;2023-03-16T00:58:03;92547.19;;;3.06;100.00
36378;BME280;22402;42.746;23.606;2023-03-16T01:00:28;92543.13;;;3.04;100.00
36378;BME280;22402;42.746;23.606;2023-03-16T01:02:53;92548.53;;;3.01;100.00
36378;BME280;22402;42.746;23.606;2023-03-16T01:05:19;92546.19;;;2.97;100.00
36378;BME280;22402;42.746;23.606;2023-03-16T01:07:44;92548.31;;;2.92;100.00
36378;BME280;22402;42.746;23.606;2023-03-16T01:10:09;92549.47;;;2.88;100.00
36378;BME280;22402;42.746;23.606;2023-03-16T01:12:35;92556.63;;;2.85;100.00
36378;BME280;22402;42.746;23.606;2023-03-16T01:15:00;92563.75;;;2.81;100.00
36378;BME280;22402;42.746;23.606;2023-03-16T01:17:25;92563.91;;;2.80;100.00
36378;BME280;22402;42.746;23.606;2023-03-16T01:19:51;92569.16;;;2.78;100.00
36378;BME280;22402;42.746;23.606;2023-03-16T01:22:16;92563.28;;;2.76;100.00
36378;BME280;22402;42.746;23.606;2023-03-16T01:24:42;92560.72;;;2.76;100.00
36378;BME280;22402;42.746;23.606;2023-03-16T01:27:07;92568.56;;;2.74;100.00
36378;BME280;22402;42.746;23.606;2023-03-16T01:29:33;92571.25;;;2.73;100.00
36378;BME280;22402;42.746;23.606;2023-03-16T01:31:59;92570.44;;;2.72;100.00
36378;BME280;22402;42.746;23.606;2023-03-16T01:34:24;92569.63;;;2.72;100.00
36378;BME280;22402;42.746;23.606;2023-03-16T01:36:50;92570.81;;;2.68;100.00
36378;BME280;22402;42.746;23.606;2023-03-16T01:39:15;92575.25;;;2.66;100.00
36378;BME280;22402;42.746;23.606;2023-03-16T01:41:41;92574.53;;;2.64;100.00
36378;BME280;22402;42.746;23.606;2023-03-16T01:44:13;92582.50;;;2.61;100.00
36378;BME280;22402;42.746;23.606;2023-03-16T01:46:39;92580.16;;;2.58;100.00
36378;BME280;22402;42.746;23.606;2023-03-16T01:54:02;92583.44;;;2.48;100.00
36378;BME280;22402;42.746;23.606;2023-03-16T01:56:32;92589.63;;;2.46;100.00
36378;BME280;22402;42.746;23.606;2023-03-16T01:58:59;92595.16;;;2.41;100.00
36378;BME280;22402;42.746;23.606;2023-03-16T02:01:26;92591.88;;;2.39;100.00
36378;BME280;22402;42.746;23.606;2023-03-16T02:03:54;92601.44;;;2.37;100.00
36378;BME280;22402;42.746;23.606;2023-03-16T02:06:19;92601.59;;;2.36;100.00
36378;BME280;22402;42.746;23.606;2023-03-16T02:08:46;92607.78;;;2.33;100.00
36378;BME280;22402;42.746;23.606;2023-03-16T02:11:11;92608.72;;;2.32;100.00
36378;BME280;22402;42.746;23.606;2023-03-16T02:13:37;92618.41;;;2.28;100.00
36378;BME280;22402;42.746;23.606;2023-03-16T02:16:03;92617.59;;;2.28;100.00
36378;BME280;22402;42.746;23.606;2023-03-16T02:18:29;92628.09;;;2.25;100.00
36378;BME280;22402;42.746;23.606;2023-03-16T02:23:28;92628.56;;;2.19;100.00
36378;BME280;22402;42.746;23.606;2023-03-16T02:26:09;92620.34;;;2.14;100.00
36378;BME280;22402;42.746;23.606;2023-03-16T02:31:23;92622.56;;;2.07;100.00
36378;BME280;22402;42.746;23.606;2023-03-16T02:33:49;92624.56;;;2.03;100.00
36378;BME280;22402;42.746;23.606;2023-03-16T02:36:17;92626.41;;;2.01;100.00
36378;BME280;22402;42.746;23.606;2023-03-16T02:38:42;92622.31;;;1.99;100.00
36378;BME280;22402;42.746;23.606;2023-03-16T02:41:12;92636.94;;;1.98;100.00
36378;BME280;22402;42.746;23.606;2023-03-16T02:43:39;92626.06;;;1.95;100.00
36378;BME280;22402;42.746;23.606;2023-03-16T03:53:10;92701.53;;;1.46;100.00
36378;BME280;22402;42.746;23.606;2023-03-16T03:55:35;92708.56;;;1.44;100.00
36378;BME280;22402;42.746;23.606;2023-03-16T03:58:00;92716.16;;;1.45;100.00
36378;BME280;22402;42.746;23.606;2023-03-16T04:00:25;92713.78;;;1.42;100.00
36378;BME280;22402;42.746;23.606;2023-03-16T04:02:51;92714.72;;;1.41;100.00
36378;BME280;22402;42.746;23.606;2023-03-16T04:05:16;92716.47;;;1.41;100.00
36378;BME280;22402;42.746;23.606;2023-03-16T04:07:41;92714.81;;;1.40;100.00
36378;BME280;22402;42.746;23.606;2023-03-16T04:10:06;92712.38;;;1.38;100.00
36378;BME280;22402;42.746;23.606;2023-03-16T04:12:32;92728.81;;;1.35;100.00
36378;BME280;22402;42.746;23.606;2023-03-16T04:14:57;92723.59;;;1.37;100.00
36378;BME280;22402;42.746;23.606;2023-03-16T04:17:22;92728.81;;;1.35;100.00
36378;BME280;22402;42.746;23.606;2023-03-16T04:19:47;92721.31;;;1.32;100.00
36378;BME280;22402;42.746;23.606;2023-03-16T04:22:12;92727.28;;;1.33;100.00
36378;BME280;22402;42.746;23.606;2023-03-16T04:24:38;92730.78;;;1.32;100.00
36378;BME280;22402;42.746;23.606;2023-03-16T04:27:03;92729.16;;;1.31;100.00
36378;BME280;22402;42.746;23.606;2023-03-16T04:29:29;92736.13;;;1.29;100.00
36378;BME280;22402;42.746;23.606;2023-03-16T04:31:54;92732.63;;;1.30;100.00
36378;BME280;22402;42.746;23.606;2023-03-16T04:34:19;92749.78;;;1.29;100.00
36378;BME280;22402;42.746;23.606;2023-03-16T04:36:45;92744.66;;;1.29;100.00
36378;BME280;22402;42.746;23.606;2023-03-16T04:39:10;92748.97;;;1.29;100.00
36378;BME280;22402;42.746;23.606;2023-03-16T04:41:35;92753.19;;;1.30;100.00
36378;BME280;22402;42.746;23.606;2023-03-16T04:44:00;92751.44;;;1.30;100.00
36378;BME280;22402;42.746;23.606;2023-03-16T04:46:26;92757.41;;;1.31;100.00
36378;BME280;22402;42.746;23.606;2023-03-16T04:48:51;92764.25;;;1.30;100.00
36378;BME280;22402;42.746;23.606;2023-03-16T04:51:17;92761.81;;;1.29;100.00
36378;BME280;22402;42.746;23.606;2023-03-16T04:53:42;92767.88;;;1.28;100.00
36378;BME280;22402;42.746;23.606;2023-03-16T04:56:07;92774.75;;;1.27;100.00
36378;BME280;22402;42.746;23.606;2023-03-16T04:58:32;92771.50;;;1.25;100.00
36378;BME280;22402;42.746;23.606;2023-03-16T05:00:58;92784.31;;;1.25;100.00
36378;BME280;22402;42.746;23.606;2023-03-16T05:03:23;92778.47;;;1.23;100.00
36378;BME280;22402;42.746;23.606;2023-03-16T05:05:48;92783.69;;;1.22;100.00
36378;BME280;22402;42.746;23.606;2023-03-16T05:08:14;92791.59;;;1.19;100.00
36378;BME280;22402;42.746;23.606;2023-03-16T05:10:39;92791.00;;;1.15;100.00
36378;BME280;22402;42.746;23.606;2023-03-16T05:13:04;92785.25;;;1.11;100.00
36378;BME280;22402;42.746;23.606;2023-03-16T05:15:30;92798.19;;;1.10;100.00
36378;BME280;22402;42.746;23.606;2023-03-16T05:17:56;92794.94;;;1.08;100.00
36378;BME280;22402;42.746;23.606;2023-03-16T05:20:21;92799.25;;;1.07;100.00
36378;BME280;22402;42.746;23.606;2023-03-16T05:22:47;92803.75;;;1.04;100.00
36378;BME280;22402;42.746;23.606;2023-03-16T05:25:13;92799.66;;;1.01;100.00
36378;BME280;22402;42.746;23.606;2023-03-16T05:27:38;92808.25;;;1.00;100.00
36378;BME280;22402;42.746;23.606;2023-03-16T05:30:03;92811.78;;;0.99;100.00
36378;BME280;22402;42.746;23.606;2023-03-16T05:32:29;92814.34;;;0.99;100.00
36378;BME280;22402;42.746;23.606;2023-03-16T05:34:54;92815.16;;;1.00;100.00
36378;BME280;22402;42.746;23.606;2023-03-16T05:37:19;92814.41;;;0.98;100.00
36378;BME280;22402;42.746;23.606;2023-03-16T05:39:44;92813.59;;;0.97;100.00
36378;BME280;22402;42.746;23.606;2023-03-16T05:42:09;92818.75;;;0.97;100.00
36378;BME280;22402;42.746;23.606;2023-03-16T05:44:34;92825.53;;;0.98;100.00
36378;BME280;22402;42.746;23.606;2023-03-16T05:47:00;92822.97;;;0.98;100.00
36378;BME280;22402;42.746;23.606;2023-03-16T05:49:25;92828.19;;;0.97;100.00
36378;BME280;22402;42.746;23.606;2023-03-16T05:51:50;92827.38;;;0.96;100.00
36378;BME280;22402;42.746;23.606;2023-03-16T05:54:16;92832.50;;;0.96;100.00
36378;BME280;22402;42.746;23.606;2023-03-16T05:56:41;92835.97;;;0.95;100.00
36378;BME280;22402;42.746;23.606;2023-03-16T05:59:06;92834.34;;;0.94;100.00
36378;BME280;22402;42.746;23.606;2023-03-16T06:01:31;92834.34;;;0.94;100.00
36378;BME280;22402;42.746;23.606;2023-03-16T06:03:57;92839.47;;;0.94;100.00
36378;BME280;22402;42.746;23.606;2023-03-16T06:06:22;92838.66;;;0.94;100.00
36378;BME280;22402;42.746;23.606;2023-03-16T06:08:47;92849.75;;;0.94;100.00
36378;BME280;22402;42.746;23.606;2023-03-16T06:11:13;92850.69;;;0.93;100.00
36378;BME280;22402;42.746;23.606;2023-03-16T06:13:38;92852.44;;;0.93;100.00
36378;BME280;22402;42.746;23.606;2023-03-16T06:16:04;92858.38;;;0.93;100.00
36378;BME280;22402;42.746;23.606;2023-03-16T06:18:29;92865.97;;;0.95;100.00
36378;BME280;22402;42.746;23.606;2023-03-16T06:20:54;92858.38;;;0.93;100.00
36378;BME280;22402;42.746;23.606;2023-03-16T06:23:19;92857.44;;;0.94;100.00
36378;BME280;22402;42.746;23.606;2023-03-16T06:25:48;92863.50;;;0.93;100.00
36378;BME280;22402;42.746;23.606;2023-03-16T06:28:13;92870.28;;;0.94;100.00
36378;BME280;22402;42.746;23.606;2023-03-16T06:30:39;92871.09;;;0.95;100.00
36378;BME280;22402;42.746;23.606;2023-03-16T06:33:04;92874.47;;;0.95;100.00
36378;BME280;22402;42.746;23.606;2023-03-16T06:35:30;92871.91;;;0.95;100.00
36378;BME280;22402;42.746;23.606;2023-03-16T06:37:55;92877.03;;;0.95;100.00
36378;BME280;22402;42.746;23.606;2023-03-16T06:40:23;92877.97;;;0.94;100.00
36378;BME280;22402;42.746;23.606;2023-03-16T06:42:48;92879.63;;;0.95;100.00
36378;BME280;22402;42.746;23.606;2023-03-16T06:45:13;92878.78;;;0.95;100.00
36378;BME280;22402;42.746;23.606;2023-03-16T06:47:38;92888.97;;;0.96;100.00
36378;BME280;22402;42.746;23.606;2023-03-16T06:50:04;92900.88;;;0.97;100.00
36378;BME280;22402;42.746;23.606;2023-03-16T06:52:29;92894.13;;;0.96;100.00
36378;BME280;22402;42.746;23.606;2023-03-16T06:54:54;92895.03;;;0.95;100.00
36378;BME280;22402;42.746;23.606;2023-03-16T06:57:20;92899.25;;;0.96;100.00
36378;BME280;22402;42.746;23.606;2023-03-16T06:59:45;92904.38;;;0.96;100.00
36378;BME280;22402;42.746;23.606;2023-03-16T07:02:13;92912.09;;;0.96;100.00
36378;BME280;22402;42.746;23.606;2023-03-16T07:04:38;92916.28;;;0.97;100.00
36378;BME280;22402;42.746;23.606;2023-03-16T07:07:04;92919.59;;;0.99;100.00
36378;BME280;22402;42.746;23.606;2023-03-16T07:09:29;92917.75;;;1.01;100.00
36378;BME280;22402;42.746;23.606;2023-03-16T07:11:54;92912.63;;;1.01;100.00
36378;BME280;22402;42.746;23.606;2023-03-16T07:14:20;92915.88;;;1.03;100.00
36378;BME280;22402;42.746;23.606;2023-03-16T07:16:45;92914.97;;;1.04;100.00
36378;BME280;22402;42.746;23.606;2023-03-16T07:19:10;92930.25;;;1.06;100.00
36378;BME280;22402;42.746;23.606;2023-03-16T07:21:35;92930.38;;;1.04;100.00
36378;BME280;22402;42.746;23.606;2023-03-16T07:24:01;92932.84;;;1.06;100.00
36378;BME280;22402;42.746;23.606;2023-03-16T07:26:26;92932.75;;;1.07;100.00
36378;BME280;22402;42.746;23.606;2023-03-16T07:28:51;92941.16;;;1.09;100.00
36378;BME280;22402;42.746;23.606;2023-03-16T07:31:16;92945.38;;;1.10;100.00
36378;BME280;22402;42.746;23.606;2023-03-16T07:33:41;92939.31;;;1.11;100.00
36378;BME280;22402;42.746;23.606;2023-03-16T07:36:07;92942.69;;;1.12;100.00
36378;BME280;22402;42.746;23.606;2023-03-16T07:38:32;92946.91;;;1.13;100.00
36378;BME280;22402;42.746;23.606;2023-03-16T07:40:58;92949.38;;;1.14;100.00
36378;BME280;22402;42.746;23.606;2023-03-16T07:43:24;92956.16;;;1.16;100.00
36378;BME280;22402;42.746;23.606;2023-03-16T07:45:50;92947.53;;;1.17;100.00
36378;BME280;22402;42.746;23.606;2023-03-16T07:48:16;92966.22;;;1.19;100.00
36378;BME280;22402;42.746;23.606;2023-03-16T07:50:41;92958.53;;;1.19;100.00
36378;BME280;22402;42.746;23.606;2023-03-16T07:53:07;92963.78;;;1.17;100.00
36378;BME280;22402;42.746;23.606;2023-03-16T07:55:32;92968.91;;;1.17;100.00
36378;BME280;22402;42.746;23.606;2023-03-16T07:57:57;92969.63;;;1.19;100.00
36378;BME280;22402;42.746;23.606;2023-03-16T08:00:22;92968.69;;;1.20;100.00
36378;BME280;22402;42.746;23.606;2023-03-16T08:02:48;92970.34;;;1.21;100.00
36378;BME280;22402;42.746;23.606;2023-03-16T08:05:13;92973.53;;;1.25;100.00
36378;BME280;22402;42.746;23.606;2023-03-16T08:07:38;92977.75;;;1.26;100.00
36378;BME280;22402;42.746;23.606;2023-03-16T08:10:03;92975.19;;;1.26;100.00
36378;BME280;22402;42.746;23.606;2023-03-16T08:12:29;92985.34;;;1.27;100.00
36378;BME280;22402;42.746;23.606;2023-03-16T08:14:54;92986.16;;;1.28;100.00
36378;BME280;22402;42.746;23.606;2023-03-16T08:17:19;92982.69;;;1.29;100.00
36378;BME280;22402;42.746;23.606;2023-03-16T08:19:45;92990.41;;;1.29;100.00
36378;BME280;22402;42.746;23.606;2023-03-16T08:22:10;92988.66;;;1.29;100.00
36378;BME280;22402;42.746;23.606;2023-03-16T08:24:35;92994.59;;;1.30;100.00
36378;BME280;22402;42.746;23.606;2023-03-16T08:27:01;93000.47;;;1.32;100.00
36378;BME280;22402;42.746;23.606;2023-03-16T08:29:26;92996.97;;;1.33;100.00
36378;BME280;22402;42.746;23.606;2023-03-16T08:31:51;93004.47;;;1.36;100.00
36378;BME280;22402;42.746;23.606;2023-03-16T08:34:17;93001.00;;;1.37;100.00
36378;BME280;22402;42.746;23.606;2023-03-16T08:36:42;93002.44;;;1.41;100.00
36378;BME280;22402;42.746;23.606;2023-03-16T08:39:08;93010.88;;;1.43;100.00
36378;BME280;22402;42.746;23.606;2023-03-16T08:41:33;93007.16;;;1.47;100.00
36378;BME280;22402;42.746;23.606;2023-03-16T08:43:58;93009.44;;;1.52;100.00
36378;BME280;22402;42.746;23.606;2023-03-16T08:46:24;93019.59;;;1.53;100.00
36378;BME280;22402;42.746;23.606;2023-03-16T08:48:49;93020.94;;;1.59;100.00
36378;BME280;22402;42.746;23.606;2023-03-16T08:51:14;93025.97;;;1.60;100.00
36378;BME280;22402;42.746;23.606;2023-03-16T08:53:40;93022.28;;;1.65;100.00
36378;BME280;22402;42.746;23.606;2023-03-16T08:56:06;93023.03;;;1.67;100.00
36378;BME280;22402;42.746;23.606;2023-03-16T08:58:32;93026.09;;;1.72;100.00
36378;BME280;22402;42.746;23.606;2023-03-16T09:00:57;93026.69;;;1.75;100.00
36378;BME280;22402;42.746;23.606;2023-03-16T09:03:22;93025.69;;;1.78;100.00
36378;BME280;22402;42.746;23.606;2023-03-16T09:05:48;93027.94;;;1.82;100.00
36378;BME280;22402;42.746;23.606;2023-03-16T09:08:13;93026.94;;;1.85;100.00
36378;BME280;22402;42.746;23.606;2023-03-16T09:10:38;93027.63;;;1.87;100.00
36378;BME280;22402;42.746;23.606;2023-03-16T09:13:03;93028.34;;;1.89;100.00
36378;BME280;22402;42.746;23.606;2023-03-16T09:15:29;93028.97;;;1.93;100.00
36378;BME280;22402;42.746;23.606;2023-03-16T09:17:54;93033.81;;;1.97;100.00
36378;BME280;22402;42.746;23.606;2023-03-16T09:20:19;93036.19;;;2.00;100.00
36378;BME280;22402;42.746;23.606;2023-03-16T09:22:47;93026.72;;;2.01;100.00
36378;BME280;22402;42.746;23.606;2023-03-16T09:25:12;93037.59;;;2.04;100.00
36378;BME280;22402;42.746;23.606;2023-03-16T09:27:37;93028.13;;;2.05;100.00
36378;BME280;22402;42.746;23.606;2023-03-16T09:30:04;93031.34;;;2.09;100.00
36378;BME280;22402;42.746;23.606;2023-03-16T09:32:42;93039.56;;;2.14;100.00
36378;BME280;22402;42.746;23.606;2023-03-16T09:35:11;93046.25;;;2.16;100.00
36378;BME280;22402;42.746;23.606;2023-03-16T09:37:37;93046.84;;;2.20;100.00
36378;BME280;22402;42.746;23.606;2023-03-16T09:40:02;93043.25;;;2.22;100.00
36378;BME280;22402;42.746;23.606;2023-03-16T09:42:33;93043.16;;;2.24;100.00
36378;BME280;22402;42.746;23.606;2023-03-16T09:47:26;93035.84;;;2.31;100.00
36378;BME280;22402;42.746;23.606;2023-03-16T09:49:52;93047.75;;;2.32;100.00
36378;BME280;22402;42.746;23.606;2023-03-16T09:52:24;93047.66;;;2.33;100.00
36378;BME280;22402;42.746;23.606;2023-03-16T09:57:26;93049.81;;;2.39;100.00
36378;BME280;22402;42.746;23.606;2023-03-16T09:59:53;93053.00;;;2.43;100.00
36378;BME280;22402;42.746;23.606;2023-03-16T10:02:37;93054.44;;;2.47;100.00
36378;BME280;22402;42.746;23.606;2023-03-16T10:05:07;93047.13;;;2.54;100.00
36378;BME280;22402;42.746;23.606;2023-03-16T10:12:44;93051.94;;;2.71;100.00
36378;BME280;22402;42.746;23.606;2023-03-16T10:15:32;93054.16;;;2.76;100.00
36378;BME280;22402;42.746;23.606;2023-03-16T10:18:01;93050.94;;;2.85;100.00
36378;BME280;22402;42.746;23.606;2023-03-16T10:20:30;93048.75;;;2.91;100.00
36378;BME280;22402;42.746;23.606;2023-03-16T10:22:56;93048.34;;;2.97;100.00
36378;BME280;22402;42.746;23.606;2023-03-16T10:27:50;93046.84;;;3.06;100.00
36378;BME280;22402;42.746;23.606;2023-03-16T10:30:34;93053.31;;;3.12;100.00
36378;BME280;22402;42.746;23.606;2023-03-16T10:33:00;93058.97;;;3.17;100.00
36378;BME280;22402;42.746;23.606;2023-03-16T10:37:54;93051.50;;;3.25;100.00
36378;BME280;22402;42.746;23.606;2023-03-16T10:40:19;93053.88;;;3.28;100.00
36378;BME280;22402;42.746;23.606;2023-03-16T10:42:46;93052.69;;;3.32;100.00
36378;BME280;22402;42.746;23.606;2023-03-16T10:45:34;93061.88;;;3.36;100.00
36378;BME280;22402;42.746;23.606;2023-03-16T10:48:07;93053.06;;;3.39;100.00
36378;BME280;22402;42.746;23.606;2023-03-16T10:50:33;93062.34;;;3.41;100.00
36378;BME280;22402;42.746;23.606;2023-03-16T10:52:58;93057.19;;;3.41;100.00
36378;BME280;22402;42.746;23.606;2023-03-16T10:55:39;93052.84;;;3.42;100.00
36378;BME280;22402;42.746;23.606;2023-03-16T10:58:07;93061.44;;;3.42;100.00
36378;BME280;22402;42.746;23.606;2023-03-16T11:00:37;93055.44;;;3.42;100.00
36378;BME280;22402;42.746;23.606;2023-03-16T11:06:46;93054.63;;;3.41;100.00
36378;BME280;22402;42.746;23.606;2023-03-16T11:09:13;93060.72;;;3.40;100.00
36378;BME280;22402;42.746;23.606;2023-03-16T11:11:38;93050.50;;;3.39;99.10
36378;BME280;22402;42.746;23.606;2023-03-16T11:14:10;93056.50;;;3.39;99.11
36378;BME280;22402;42.746;23.606;2023-03-16T11:16:40;93052.84;;;3.42;99.24
36378;BME280;22402;42.746;23.606;2023-03-16T11:19:20;93056.16;;;3.44;99.05
36378;BME280;22402;42.746;23.606;2023-03-16T11:21:52;93058.63;;;3.46;99.78
36378;BME280;22402;42.746;23.606;2023-03-16T11:24:25;93055.81;;;3.49;99.03
36378;BME280;22402;42.746;23.606;2023-03-16T11:26:56;93056.53;;;3.51;99.56
36378;BME280;22402;42.746;23.606;2023-03-16T11:29:23;93052.91;;;3.53;99.16
36378;BME280;22402;42.746;23.606;2023-03-16T11:31:56;93049.28;;;3.56;99.14
36378;BME280;22402;42.746;23.606;2023-03-16T11:34:26;93060.31;;;3.58;99.78
36378;BME280;22402;42.746;23.606;2023-03-16T11:36:53;93056.91;;;3.57;99.33
36378;BME280;22402;42.746;23.606;2023-03-16T11:44:15;93053.06;;;3.63;99.21
36378;BME280;22402;42.746;23.606;2023-03-16T11:47:00;93057.28;;;3.64;99.71
36378;BME280;22402;42.746;23.606;2023-03-16T11:57:29;93044.88;;;3.69;99.44
36378;BME280;22402;42.746;23.606;2023-03-16T12:02:32;93056.97;;;3.80;100.00
36378;BME280;22402;42.746;23.606;2023-03-16T12:10:24;93058.75;;;3.91;99.12
36378;BME280;22402;42.746;23.606;2023-03-16T12:15:34;93051.50;;;3.96;98.66
36378;BME280;22402;42.746;23.606;2023-03-16T12:18:04;93056.44;;;3.99;98.72
36378;BME280;22402;42.746;23.606;2023-03-16T12:21:16;93059.47;;;4.04;99.44
36378;BME280;22402;42.746;23.606;2023-03-16T12:23:28;93059.47;;;4.04;98.93
36378;BME280;22402;42.746;23.606;2023-03-16T12:25:56;93057.03;;;4.02;98.38
36378;BME280;22402;42.746;23.606;2023-03-16T12:28:23;93056.06;;;4.03;98.75
36378;BME280;22402;42.746;23.606;2023-03-16T12:38:48;93066.53;;;4.02;98.89
36378;BME280;22402;42.746;23.606;2023-03-16T12:41:26;93064.03;;;4.00;98.74
36378;BME280;22402;42.746;23.606;2023-03-16T12:46:34;93070.38;;;3.96;98.52
36378;BME280;22402;42.746;23.606;2023-03-16T12:49:04;93078.44;;;3.92;98.43
36378;BME280;22402;42.746;23.606;2023-03-16T12:51:37;93081.25;;;3.88;98.44
36378;BME280;22402;42.746;23.606;2023-03-16T12:54:03;93083.97;;;3.87;99.21
36378;BME280;22402;42.746;23.606;2023-03-16T12:56:29;93084.88;;;3.86;98.89
36378;BME280;22402;42.746;23.606;2023-03-16T12:58:55;93087.69;;;3.83;99.09
36378;BME280;22402;42.746;23.606;2023-03-16T13:01:24;93085.47;;;3.78;98.51
36378;BME280;22402;42.746;23.606;2023-03-16T13:03:57;93095.28;;;3.73;98.85
36378;BME280;22402;42.746;23.606;2023-03-16T13:06:22;93094.78;;;3.68;98.55
36378;BME280;22402;42.746;23.606;2023-03-16T13:08:55;93095.22;;;3.62;98.74
36378;BME280;22402;42.746;23.606;2023-03-16T13:11:21;93090.44;;;3.57;99.12
36378;BME280;22402;42.746;23.606;2023-03-16T13:16:25;93101.50;;;3.47;99.41
36378;BME280;22402;42.746;23.606;2023-03-16T13:18:50;93106.88;;;3.43;99.20
36378;BME280;22402;42.746;23.606;2023-03-16T13:21:17;93117.28;;;3.42;99.83
36378;BME280;22402;42.746;23.606;2023-03-16T13:23:50;93113.19;;;3.39;99.96
36378;BME280;22402;42.746;23.606;2023-03-16T13:28:51;93116.22;;;3.33;99.96
36378;BME280;22402;42.746;23.606;2023-03-16T13:31:18;93129.31;;;3.30;99.47
36378;BME280;22402;42.746;23.606;2023-03-16T13:33:44;93127.78;;;3.28;99.50
36378;BME280;22402;42.746;23.606;2023-03-16T13:36:10;93119.41;;;3.24;99.63
36378;BME280;22402;42.746;23.606;2023-03-16T13:38:37;93134.19;;;3.22;99.34
36378;BME280;22402;42.746;23.606;2023-03-16T13:41:03;93123.28;;;3.18;99.18
36378;BME280;22402;42.746;23.606;2023-03-16T13:43:29;93128.66;;;3.15;99.46
36378;BME280;22402;42.746;23.606;2023-03-16T13:45:55;93135.66;;;3.13;99.43
36378;BME280;22402;42.746;23.606;2023-03-16T13:48:20;93148.75;;;3.10;99.76
36378;BME280;22402;42.746;23.606;2023-03-16T13:50:53;93136.91;;;3.08;99.75
36378;BME280;22402;42.746;23.606;2023-03-16T13:53:23;93133.00;;;3.02;100.00
36378;BME280;22402;42.746;23.606;2023-03-16T13:55:48;93147.63;;;3.02;100.00
36378;BME280;22402;42.746;23.606;2023-03-16T13:58:20;93148.78;;;2.97;100.00
36378;BME280;22402;42.746;23.606;2023-03-16T14:00:46;93145.47;;;2.95;100.00
36378;BME280;22402;42.746;23.606;2023-03-16T14:03:18;93144.75;;;2.93;100.00
36378;BME280;22402;42.746;23.606;2023-03-16T14:05:44;93149.19;;;2.91;100.00
36378;BME280;22402;42.746;23.606;2023-03-16T14:08:21;93147.66;;;2.89;100.00
36378;BME280;22402;42.746;23.606;2023-03-16T14:10:47;93153.84;;;2.86;100.00
36378;BME280;22402;42.746;23.606;2023-03-16T14:13:23;93151.47;;;2.83;100.00
36378;BME280;22402;42.746;23.606;2023-03-16T14:15:49;93152.59;;;2.79;100.00
36378;BME280;22402;42.746;23.606;2023-03-16T14:18:17;93166.50;;;2.77;100.00
36378;BME280;22402;42.746;23.606;2023-03-16T14:20:43;93152.13;;;2.74;100.00
36378;BME280;22402;42.746;23.606;2023-03-16T14:23:19;93149.84;;;2.69;100.00
36378;BME280;22402;42.746;23.606;2023-03-16T14:25:46;93151.81;;;2.66;100.00
36378;BME280;22402;42.746;23.606;2023-03-16T14:28:12;93157.16;;;2.63;100.00
36378;BME280;22402;42.746;23.606;2023-03-16T14:30:38;93153.88;;;2.61;100.00
36378;BME280;22402;42.746;23.606;2023-03-16T14:35:53;93157.59;;;2.57;100.00
36378;BME280;22402;42.746;23.606;2023-03-16T14:38:29;93154.28;;;2.55;100.00
36378;BME280;22402;42.746;23.606;2023-03-16T14:40:55;93159.44;;;2.55;100.00
36378;BME280;22402;42.746;23.606;2023-03-16T14:43:24;93166.22;;;2.56;100.00
36378;BME280;22402;42.746;23.606;2023-03-16T14:45:50;93158.47;;;2.56;100.00
36378;BME280;22402;42.746;23.606;2023-03-16T14:48:18;93168.78;;;2.56;100.00
36378;BME280;22402;42.746;23.606;2023-03-16T14:50:51;93171.34;;;2.56;100.00
36378;BME280;22402;42.746;23.606;2023-03-16T14:53:17;93170.44;;;2.57;100.00
36378;BME280;22402;42.746;23.606;2023-03-16T14:55:42;93173.94;;;2.56;100.00
36378;BME280;22402;42.746;23.606;2023-03-16T14:58:08;93182.50;;;2.56;100.00
36378;BME280;22402;42.746;23.606;2023-03-16T15:00:33;93179.19;;;2.54;100.00
36378;BME280;22402;42.746;23.606;2023-03-16T15:02:59;93185.38;;;2.51;100.00
36378;BME280;22402;42.746;23.606;2023-03-16T15:05:33;93186.41;;;2.49;100.00
36378;BME280;22402;42.746;23.606;2023-03-16T15:07:59;93188.25;;;2.47;100.00
36378;BME280;22402;42.746;23.606;2023-03-16T15:10:28;93190.09;;;2.45;100.00